Time;durP1;ratioP1;P1;durP2;ratioP2;P2;SDS_P1;SDS_P2;PMS_P1;PMS_P2;Temp;Humidity;BMP_temperature;BMP_pressure;BME280_temperature;BME280_humidity;BME280_pressure;Samples;Min_cycle;Max_cycle;Signal;HPM_P1;HPM_P2
2022/03/27 00:01:34;;;;;;;15.55;13.57;;;7.40;1.00;;;;;;4967551;28;20303;-77
2022/03/27 00:04:05;;;;;;;15.18;13.57;;;7.40;1.00;;;;;;4974553;28;21489;-75
2022/03/27 00:06:33;;;;;;;15.32;13.07;;;7.40;1.00;;;;;;4969649;28;20228;-77
2022/03/27 00:09:03;;;;;;;17.75;14.05;;;7.40;1.00;;;;;;4972751;28;20240;-78
2022/03/27 00:11:33;;;;;;;15.80;12.85;;;7.40;1.00;;;;;;4970715;28;20228;-79
2022/03/27 00:14:04;;;;;;;16.63;14.07;;;7.40;1.00;;;;;;4966998;28;20243;-79
2022/03/27 00:16:34;;;;;;;13.63;12.40;;;7.40;1.00;;;;;;4972521;28;20236;-77
2022/03/27 00:19:03;;;;;;;15.43;13.82;;;7.40;1.00;;;;;;4965246;28;20229;-77
2022/03/27 00:21:35;;;;;;;14.65;13.05;;;7.30;1.00;;;;;;4969810;28;20245;-76
2022/03/27 00:24:03;;;;;;;14.23;12.93;;;7.30;1.00;;;;;;4971477;28;20263;-79
2022/03/27 00:26:29;;;;;;;20.42;14.60;;;7.30;1.00;;;;;;4966366;28;20307;-75
2022/03/27 00:28:56;;;;;;;15.65;14.05;;;7.20;1.00;;;;;;4971772;28;20302;-76
2022/03/27 00:31:24;;;;;;;15.00;13.43;;;7.30;1.00;;;;;;4969158;28;20236;-79
2022/03/27 00:33:52;;;;;;;15.18;13.57;;;7.20;1.00;;;;;;4969243;28;20261;-76
2022/03/27 00:36:23;;;;;;;14.80;13.35;;;7.20;1.00;;;;;;4960348;28;20260;-76
2022/03/27 00:38:54;;;;;;;15.27;13.70;;;7.10;1.00;;;;;;4970922;28;20228;-76
2022/03/27 00:41:23;;;;;;;16.23;14.63;;;7.00;1.00;;;;;;4978710;28;20264;-77
2022/03/27 00:43:57;;;;;;;17.00;15.23;;;6.80;1.00;;;;;;4978624;28;20224;-75
2022/03/27 00:46:23;;;;;;;16.23;14.52;;;6.80;1.00;;;;;;4978968;28;20240;-77
2022/03/27 00:48:53;;;;;;;16.05;14.45;;;6.70;1.00;;;;;;4977662;28;20228;-78
2022/03/27 00:51:21;;;;;;;16.23;14.48;;;6.60;1.00;;;;;;4916302;28;20296;-76
2022/03/27 00:53:50;;;;;;;16.20;14.60;;;6.60;1.00;;;;;;4945000;28;20232;-79
2022/03/27 00:56:29;;;;;;;17.80;13.15;;;6.50;1.00;;;;;;4942528;23;20447;-78
2022/03/27 00:58:56;;;;;;;17.65;15.77;;;6.50;1.00;;;;;;4888315;28;20239;-77
2022/03/27 01:01:32;;;;;;;15.43;13.73;;;6.50;1.00;;;;;;4906627;29;20245;-79
2022/03/27 01:04:02;;;;;;;15.13;13.52;;;6.50;1.00;;;;;;4909549;29;20313;-77
2022/03/27 01:06:34;;;;;;;16.13;14.63;;;6.40;1.00;;;;;;4916989;28;20212;-78
2022/03/27 01:11:51;;;;;;;17.60;15.75;;;6.40;1.00;;;;;;4928131;28;20808;-80
2022/03/27 01:14:28;;;;;;;16.65;14.95;;;6.30;1.00;;;;;;4928894;28;20282;-79
2022/03/27 01:17:07;;;;;;;16.08;14.48;;;6.30;1.00;;;;;;4928003;28;20340;-76
2022/03/27 01:19:47;;;;;;;17.23;15.20;;;6.20;1.00;;;;;;4929138;28;20238;-78
2022/03/27 01:22:23;;;;;;;16.90;15.00;;;6.20;1.00;;;;;;4892989;28;20241;-79
2022/03/27 01:24:54;;;;;;;16.63;15.02;;;6.20;1.00;;;;;;4906052;28;20314;-79
2022/03/27 01:27:36;;;;;;;19.95;15.18;;;6.10;1.00;;;;;;4974689;23;20214;-78
2022/03/27 01:30:03;;;;;;;18.40;15.27;;;6.10;1.00;;;;;;4934416;28;20230;-78
2022/03/27 01:32:32;;;;;;;17.48;15.45;;;6.00;1.00;;;;;;4927804;28;20245;-77
2022/03/27 01:35:05;;;;;;;17.17;15.38;;;6.00;1.00;;;;;;4932759;28;20230;-78
2022/03/27 01:37:34;;;;;;;17.05;15.35;;;6.10;1.00;;;;;;4933784;28;20242;-79
2022/03/27 01:40:03;;;;;;;18.52;16.67;;;6.00;1.00;;;;;;4930211;28;20273;-78
2022/03/27 01:42:32;;;;;;;19.65;16.27;;;6.00;1.00;;;;;;4933030;28;20248;-79
2022/03/27 01:45:04;;;;;;;16.75;15.05;;;5.90;1.00;;;;;;4939894;28;20221;-78
2022/03/27 01:47:34;;;;;;;16.90;15.10;;;5.90;1.00;;;;;;4954298;28;20264;-78
2022/03/27 01:50:02;;;;;;;20.52;16.52;;;5.90;1.00;;;;;;4937642;28;20292;-79
2022/03/27 01:52:43;;;;;;;17.63;15.35;;;5.80;1.00;;;;;;4941935;28;20262;-77
2022/03/27 01:55:16;;;;;;;19.45;16.50;;;5.80;1.00;;;;;;4934445;28;20312;-77
2022/03/27 01:57:45;;;;;;;19.08;16.15;;;5.70;1.00;;;;;;4931251;23;21128;-79
2022/03/27 02:00:16;;;;;;;30.80;27.45;;;5.70;1.00;;;;;;4949338;28;20309;-79
2022/03/27 02:02:43;;;;;;;21.15;18.40;;;5.60;1.00;;;;;;4964922;28;20301;-76
2022/03/27 02:05:11;;;;;;;18.20;16.10;;;5.50;1.00;;;;;;4931594;28;20238;-79
2022/03/27 02:07:45;;;;;;;19.92;17.30;;;5.50;1.00;;;;;;4946857;28;20232;-77
2022/03/27 02:10:14;;;;;;;18.20;16.35;;;5.50;1.00;;;;;;4957765;28;20362;-76
2022/03/27 02:12:45;;;;;;;20.98;17.42;;;5.50;1.00;;;;;;4957888;28;20297;-80
2022/03/27 02:15:13;;;;;;;19.65;17.30;;;5.40;1.00;;;;;;4962499;28;20268;-80
2022/03/27 02:18:05;;;;;;;22.67;17.30;;;5.40;1.00;;;;;;4943051;28;20776;-79
2022/03/27 02:20:44;;;;;;;20.70;18.10;;;5.30;1.00;;;;;;4941583;28;20237;-77
2022/03/27 02:23:15;;;;;;;20.13;18.10;;;5.30;1.00;;;;;;4962454;28;20431;-79
2022/03/27 02:25:44;;;;;;;19.42;17.42;;;5.30;1.00;;;;;;4963315;28;20555;-81
2022/03/27 02:28:14;;;;;;;18.80;16.35;;;5.20;1.00;;;;;;4960272;28;20232;-79
2022/03/27 02:30:45;;;;;;;19.77;17.77;;;5.20;1.00;;;;;;4950890;28;20300;-81
2022/03/27 02:33:14;;;;;;;18.65;16.65;;;5.10;1.00;;;;;;4955837;28;20257;-77
2022/03/27 02:35:45;;;;;;;17.90;16.10;;;5.10;1.00;;;;;;4952373;28;20233;-80
2022/03/27 02:38:15;;;;;;;19.80;17.80;;;5.00;1.00;;;;;;4955233;28;20231;-80
2022/03/27 02:40:45;;;;;;;23.10;19.13;;;4.90;1.00;;;;;;4950375;28;20221;-77
2022/03/27 02:43:14;;;;;;;18.75;16.80;;;4.90;1.00;;;;;;4939064;28;20603;-82
2022/03/27 02:48:13;;;;;;;30.63;27.35;;;4.90;1.00;;;;;;5087327;23;39511;-80
2022/03/27 02:50:47;;;;;;;20.95;18.70;;;4.90;1.00;;;;;;4933110;28;20253;-79
2022/03/27 02:53:18;;;;;;;20.67;18.48;;;4.80;1.00;;;;;;4933318;28;20249;-78
2022/03/27 02:58:25;;;;;;;19.85;17.75;;;4.80;1.00;;;;;;4964275;23;20205;-78
2022/03/27 03:00:54;;;;;;;18.92;17.02;;;4.90;1.00;;;;;;4945347;28;20232;-78
2022/03/27 03:03:24;;;;;;;20.13;17.95;;;4.80;1.00;;;;;;4949006;28;20248;-80
2022/03/27 03:05:57;;;;;;;20.15;18.15;;;4.80;1.00;;;;;;4945160;28;20228;-79
2022/03/27 03:08:35;;;;;;;21.00;18.80;;;4.80;1.00;;;;;;4957634;28;20217;-81
2022/03/27 03:11:02;;;;;;;20.45;18.45;;;4.80;1.00;;;;;;4936806;28;20289;-78
2022/03/27 03:13:35;;;;;;;20.55;18.42;;;4.70;1.00;;;;;;4934661;28;20298;-78
2022/03/27 03:16:03;;;;;;;22.23;19.90;;;4.70;1.00;;;;;;4949479;28;21144;-79
2022/03/27 03:24:50;;;;;;;21.55;19.38;;;4.60;1.00;;;;;;4881890;28;20256;-77
2022/03/27 03:27:25;;;;;;;20.65;18.55;;;4.50;1.00;;;;;;4969569;28;20689;-77
2022/03/27 03:29:52;;;;;;;23.00;20.65;;;4.50;1.00;;;;;;4966825;28;20375;-80
2022/03/27 03:35:14;;;;;;;25.35;22.65;;;4.50;1.00;;;;;;4941968;28;20330;-80
2022/03/27 03:37:46;;;;;;;24.55;21.90;;;4.50;1.00;;;;;;4971677;28;20248;-78
2022/03/27 03:40:15;;;;;;;25.27;22.67;;;4.50;1.00;;;;;;4976809;28;20355;-82
2022/03/27 03:42:44;;;;;;;27.15;24.35;;;4.50;1.00;;;;;;4975691;28;20248;-79
2022/03/27 03:45:11;;;;;;;27.27;24.58;;;4.50;1.00;;;;;;4965630;28;20223;-78
2022/03/27 03:47:45;;;;;;;28.35;24.80;;;4.50;1.00;;;;;;4971460;28;20248;-80
2022/03/27 03:50:14;;;;;;;26.08;23.40;;;4.50;1.00;;;;;;4970537;28;20220;-78
2022/03/27 03:52:44;;;;;;;26.70;24.10;;;4.40;1.00;;;;;;4978316;28;20505;-80
2022/03/27 03:55:16;;;;;;;27.73;24.92;;;4.40;1.00;;;;;;4973449;28;20941;-81
2022/03/27 03:57:46;;;;;;;26.98;24.17;;;4.40;1.00;;;;;;4973540;28;20239;-79
2022/03/27 04:00:13;;;;;;;27.60;24.80;;;4.30;1.00;;;;;;4961144;28;20244;-81
2022/03/27 04:02:47;;;;;;;25.38;23.00;;;4.30;1.00;;;;;;4965553;28;20224;-81
2022/03/27 04:05:14;;;;;;;27.55;24.42;;;4.30;1.00;;;;;;4957239;28;20244;-79
2022/03/27 04:07:45;;;;;;;28.08;25.38;;;4.30;1.00;;;;;;4970689;28;20237;-81
2022/03/27 04:10:16;;;;;;;27.30;24.58;;;4.30;1.00;;;;;;4969042;28;20242;-80
2022/03/27 04:12:46;;;;;;;27.45;24.70;;;4.30;1.00;;;;;;4974221;28;20236;-80
2022/03/27 04:15:15;;;;;;;26.15;23.55;;;4.20;1.00;;;;;;4972438;28;20236;-79
2022/03/27 04:17:46;;;;;;;26.15;23.52;;;4.10;1.00;;;;;;4973360;28;20299;-80
2022/03/27 04:20:34;;;;;;;26.58;23.83;;;4.10;1.00;;;;;;4929498;28;20230;-80
2022/03/27 04:23:05;;;;;;;25.33;22.95;;;4.00;1.00;;;;;;4821724;29;20246;-81
2022/03/27 04:28:46;;;;;;;24.05;21.55;;;4.00;1.00;;;;;;4901766;28;20246;-80
2022/03/27 04:31:14;;;;;;;32.50;26.23;;;4.00;1.00;;;;;;4903678;28;20270;-80
2022/03/27 04:33:47;;;;;;;26.30;23.85;;;4.00;1.00;;;;;;4917887;28;20260;-81
2022/03/27 04:36:15;;;;;;;24.83;22.48;;;4.00;1.00;;;;;;4964948;23;20829;-79
2022/03/27 04:38:56;;;;;;;25.00;22.50;;;3.90;1.00;;;;;;4944909;28;20234;-80
2022/03/27 04:41:47;;;;;;;26.35;23.65;;;3.90;1.00;;;;;;4919950;28;20266;-80
2022/03/27 04:44:43;;;;;;;25.45;23.02;;;3.90;1.00;;;;;;4892433;28;20302;-80
2022/03/27 04:47:15;;;;;;;27.00;24.40;;;3.90;1.00;;;;;;4929955;23;20248;-82
2022/03/27 04:49:42;;;;;;;33.33;27.35;;;3.90;1.00;;;;;;4954390;28;21257;-80
2022/03/27 04:52:15;;;;;;;27.80;24.98;;;3.80;1.00;;;;;;4946140;28;20392;-81
2022/03/27 04:54:45;;;;;;;24.90;22.33;;;3.80;1.00;;;;;;4957865;28;20242;-79
2022/03/27 04:57:16;;;;;;;28.65;25.92;;;3.80;1.00;;;;;;4954285;28;20237;-79
2022/03/27 04:59:45;;;;;;;28.63;25.67;;;3.80;1.00;;;;;;4958160;28;20261;-81
2022/03/27 05:02:16;;;;;;;22.75;20.48;;;3.80;1.00;;;;;;4950639;28;20276;-78
2022/03/27 05:07:27;;;;;;;24.55;21.45;;;4.00;1.00;;;;;;4885946;28;20308;-80
2022/03/27 05:09:53;;;;;;;23.25;21.05;;;4.00;1.00;;;;;;4992053;23;20604;-78
2022/03/27 05:12:27;;;;;;;25.10;22.65;;;4.00;1.00;;;;;;4955166;28;20371;-78
2022/03/27 05:14:54;;;;;;;26.85;24.15;;;4.00;1.00;;;;;;4953221;28;21586;-81
2022/03/27 05:17:26;;;;;;;24.88;22.48;;;4.00;1.00;;;;;;4947425;28;20228;-78
2022/03/27 05:19:53;;;;;;;24.60;22.10;;;4.10;1.00;;;;;;4948975;28;20240;-79
2022/03/27 05:22:29;;;;;;;28.05;25.20;;;4.10;1.00;;;;;;4950274;28;20209;-79
2022/03/27 05:24:56;;;;;;;25.25;22.65;;;4.00;1.00;;;;;;4961246;28;20408;-77
2022/03/27 05:27:28;;;;;;;26.60;23.90;;;4.00;1.00;;;;;;4962653;28;20217;-77
2022/03/27 05:29:55;;;;;;;27.35;23.67;;;4.10;1.00;;;;;;4967752;28;20237;-79
2022/03/27 05:32:27;;;;;;;25.85;23.05;;;4.10;1.00;;;;;;4958886;28;20224;-78
2022/03/27 05:34:54;;;;;;;25.80;23.20;;;4.10;1.00;;;;;;4969580;28;21081;-78
2022/03/27 05:37:25;;;;;;;25.20;22.70;;;4.10;1.00;;;;;;4968015;28;20239;-78
2022/03/27 05:39:52;;;;;;;25.40;22.90;;;4.20;1.00;;;;;;4959816;28;21176;-78
2022/03/27 05:42:26;;;;;;;25.60;22.83;;;4.20;1.00;;;;;;4962665;28;20325;-78
2022/03/27 05:44:54;;;;;;;25.90;23.25;;;4.20;1.00;;;;;;4968948;28;20237;-77
2022/03/27 05:47:26;;;;;;;26.02;23.17;;;4.20;1.00;;;;;;4968078;28;20236;-77
2022/03/27 05:49:53;;;;;;;25.63;23.13;;;4.20;1.00;;;;;;4966630;28;20354;-78
2022/03/27 05:52:30;;;;;;;23.92;21.52;;;4.30;1.00;;;;;;4970649;28;20247;-79
2022/03/27 05:54:57;;;;;;;24.88;22.00;;;4.30;1.00;;;;;;4965002;28;20244;-78
2022/03/27 05:57:27;;;;;;;25.15;22.45;;;4.40;1.00;;;;;;4966196;28;20216;-78
2022/03/27 05:59:55;;;;;;;23.80;20.52;;;4.50;1.00;;;;;;4962996;28;20338;-78
2022/03/27 06:02:26;;;;;;;24.10;21.80;;;4.50;1.00;;;;;;4958640;28;20237;-78
2022/03/27 06:04:52;;;;;;;30.10;26.88;;;4.60;1.00;;;;;;4966917;28;20969;-77
2022/03/27 06:07:25;;;;;;;24.40;22.02;;;4.70;1.00;;;;;;4958333;28;20240;-77
2022/03/27 06:09:52;;;;;;;23.42;20.92;;;4.80;1.00;;;;;;4964978;28;20240;-77
2022/03/27 06:12:26;;;;;;;21.77;19.67;;;4.80;1.00;;;;;;4958844;28;20244;-77
2022/03/27 06:14:52;;;;;;;22.02;19.80;;;4.90;1.00;;;;;;4967988;28;20240;-78
2022/03/27 06:17:30;;;;;;;21.92;19.80;;;5.00;1.00;;;;;;4963309;28;20244;-78
2022/03/27 06:19:57;;;;;;;22.30;20.20;;;5.10;1.00;;;;;;4962158;28;20232;-77
2022/03/27 06:22:27;;;;;;;22.55;20.35;;;5.10;1.00;;;;;;4963125;28;20216;-78
2022/03/27 06:24:54;;;;;;;22.40;20.08;;;5.20;1.00;;;;;;4965859;28;21039;-78
2022/03/27 06:27:25;;;;;;;23.55;21.08;;;5.20;1.00;;;;;;4961553;28;20251;-78
2022/03/27 06:29:51;;;;;;;26.00;23.38;;;5.20;1.00;;;;;;4964162;28;20240;-77
2022/03/27 06:32:26;;;;;;;23.88;21.52;;;5.20;1.00;;;;;;4957922;28;20972;-77
2022/03/27 06:34:58;;;;;;;28.92;23.38;;;5.20;1.00;;;;;;4962055;28;20263;-78
2022/03/27 06:37:29;;;;;;;24.85;22.20;;;5.30;1.00;;;;;;4965653;28;20229;-77
2022/03/27 06:39:56;;;;;;;28.10;23.90;;;5.30;1.00;;;;;;4959962;28;20252;-77
2022/03/27 06:42:26;;;;;;;27.20;23.88;;;5.40;1.00;;;;;;4968778;28;20224;-77
2022/03/27 06:44:54;;;;;;;26.35;22.35;;;5.50;1.00;;;;;;4957904;28;20983;-78
2022/03/27 06:47:29;;;;;;;28.00;22.90;;;5.60;1.00;;;;;;4964636;28;20233;-78
2022/03/27 06:50:04;;;;;;;24.55;22.00;;;5.80;1.00;;;;;;4966723;28;20252;-77
2022/03/27 06:52:33;;;;;;;26.63;23.27;;;5.90;1.00;;;;;;4959673;28;20236;-77
2022/03/27 06:55:09;;;;;;;25.30;22.60;;;6.00;1.00;;;;;;4958611;28;20419;-77
2022/03/27 06:57:36;;;;;;;24.17;21.60;;;6.20;1.00;;;;;;4964073;28;20357;-78
2022/03/27 07:03:06;;;;;;;28.77;25.35;;;6.50;1.00;;;;;;4950368;28;20241;-77
2022/03/27 07:05:36;;;;;;;30.42;25.25;;;6.60;1.00;;;;;;4941142;28;20241;-78
2022/03/27 07:08:05;;;;;;;30.02;24.83;;;6.60;1.00;;;;;;4947461;28;20260;-77
2022/03/27 07:10:32;;;;;;;28.75;25.25;;;6.70;1.00;;;;;;4943491;28;20249;-78
2022/03/27 07:13:09;;;;;;;34.17;27.27;;;6.60;1.00;;;;;;4941766;28;20336;-78
2022/03/27 07:15:35;;;;;;;28.67;25.52;;;6.60;1.00;;;;;;4954231;28;20236;-78
2022/03/27 07:18:06;;;;;;;33.80;26.90;;;6.70;1.00;;;;;;4962934;28;20264;-78
2022/03/27 07:20:36;;;;;;;33.65;27.45;;;6.80;1.00;;;;;;4961601;28;20240;-79
2022/03/27 07:23:08;;;;;;;33.25;27.27;;;6.80;1.00;;;;;;4966085;28;20228;-78
2022/03/27 07:25:36;;;;;;;28.17;25.10;;;6.90;1.00;;;;;;4966542;28;20240;-78
2022/03/27 07:28:06;;;;;;;28.52;25.52;;;7.00;1.00;;;;;;4957032;28;20220;-78
2022/03/27 07:30:33;;;;;;;30.55;27.13;;;7.20;1.00;;;;;;4979285;28;20247;-78
2022/03/27 07:33:04;;;;;;;31.77;27.65;;;7.30;1.00;;;;;;4963560;28;20414;-78
2022/03/27 07:35:31;;;;;;;27.05;24.38;;;7.40;1.00;;;;;;4963097;28;21491;-78
2022/03/27 07:38:06;;;;;;;25.98;21.85;;;7.50;1.00;;;;;;4956386;28;20240;-80
2022/03/27 07:40:32;;;;;;;27.63;24.70;;;7.70;1.00;;;;;;4958637;28;20250;-80
2022/03/27 07:43:04;;;;;;;29.40;26.33;;;7.80;1.00;;;;;;4967175;28;20334;-79
2022/03/27 07:45:32;;;;;;;27.45;24.48;;;7.90;1.00;;;;;;4959427;28;20255;-78
2022/03/27 07:48:05;;;;;;;26.95;24.35;;;8.20;1.00;;;;;;4955997;28;20864;-77
2022/03/27 07:50:32;;;;;;;26.23;23.30;;;8.30;1.00;;;;;;4968893;28;20336;-77
2022/03/27 07:53:06;;;;;;;30.67;24.60;;;8.40;1.00;;;;;;4972756;28;20342;-75
2022/03/27 07:55:33;;;;;;;24.48;22.08;;;8.60;1.00;;;;;;4968167;28;20822;-77
2022/03/27 07:58:05;;;;;;;24.67;21.27;;;8.70;1.00;;;;;;4977654;28;20243;-77
2022/03/27 08:00:32;;;;;;;23.75;21.45;;;8.80;1.00;;;;;;4975614;28;20299;-77
2022/03/27 08:03:03;;;;;;;27.00;24.10;;;8.90;1.00;;;;;;4971777;28;20295;-78
2022/03/27 08:05:30;;;;;;;25.67;22.97;;;9.00;1.00;;;;;;4966769;28;23822;-77
2022/03/27 08:07:57;;;;;;;25.95;22.95;;;9.20;1.00;;;;;;4971999;28;20563;-77
2022/03/27 08:10:28;;;;;;;26.43;23.80;;;9.30;1.00;;;;;;4965273;28;20283;-76
2022/03/27 08:12:56;;;;;;;28.57;24.57;;;9.50;1.00;;;;;;4971354;28;20511;-78
2022/03/27 08:15:26;;;;;;;26.40;23.80;;;9.60;1.00;;;;;;4967047;28;20476;-77
2022/03/27 08:17:53;;;;;;;25.40;23.00;;;9.70;1.00;;;;;;4968003;28;20796;-77
2022/03/27 08:20:26;;;;;;;24.77;22.37;;;9.80;1.00;;;;;;4969727;28;20444;-77
2022/03/27 08:22:53;;;;;;;26.77;23.70;;;10.00;1.00;;;;;;4961598;28;20521;-77
2022/03/27 08:28:14;;;;;;;27.20;24.33;;;10.30;1.00;;;;;;4968069;28;20456;-77
2022/03/27 08:30:51;;;;;;;25.87;23.33;;;10.50;1.00;;;;;;4968340;28;20437;-77
2022/03/27 08:33:18;;;;;;;27.23;23.30;;;10.70;1.00;;;;;;4980981;28;20461;-76
2022/03/27 08:35:46;;;;;;;23.40;21.13;;;10.90;1.00;;;;;;4975795;28;20491;-76
2022/03/27 08:38:13;;;;;;;23.37;21.17;;;11.00;1.00;;;;;;4973597;28;20531;-78
2022/03/27 08:40:47;;;;;;;23.93;21.40;;;11.10;1.00;;;;;;4964179;28;20432;-76
2022/03/27 08:43:17;;;;;;;23.43;21.23;;;11.30;1.00;;;;;;4966364;28;20742;-77
2022/03/27 08:45:46;;;;;;;22.73;20.57;;;11.50;1.00;;;;;;4971187;28;20462;-77
2022/03/27 08:48:13;;;;;;;22.83;20.40;;;11.70;1.00;;;;;;4968789;28;20452;-78
2022/03/27 08:50:51;;;;;;;22.30;20.30;;;11.90;1.00;;;;;;4965858;28;20973;-77
2022/03/27 08:53:29;;;;;;;20.23;18.23;;;12.00;1.00;;;;;;4967621;28;21055;-78
2022/03/27 08:56:06;;;;;;;20.77;18.73;;;12.10;1.00;;;;;;4961491;28;21030;-77
2022/03/27 08:58:36;;;;;;;22.57;20.37;;;12.20;1.00;;;;;;4962623;28;22586;-77
2022/03/27 09:01:06;;;;;;;20.10;18.30;;;12.40;1.00;;;;;;4956703;28;20504;-76
2022/03/27 09:03:33;;;;;;;21.83;19.63;;;12.60;1.00;;;;;;4957573;28;20471;-75
2022/03/27 09:06:05;;;;;;;21.47;19.47;;;12.80;1.00;;;;;;4961768;28;20484;-78
2022/03/27 09:08:32;;;;;;;19.83;17.97;;;12.90;1.00;;;;;;4965731;28;20491;-77
2022/03/27 09:11:04;;;;;;;22.30;20.10;;;13.10;1.00;;;;;;4959979;28;20523;-78
2022/03/27 09:13:33;;;;;;;20.13;18.13;;;13.20;1.00;;;;;;4957229;28;20582;-75
2022/03/27 09:16:07;;;;;;;18.80;17.00;;;13.30;1.00;;;;;;4946630;28;20500;-80
2022/03/27 09:18:48;;;;;;;19.30;17.40;;;13.60;1.00;;;;;;4961710;28;20487;-77
2022/03/27 09:21:15;;;;;;;17.73;16.00;;;13.80;1.00;;;;;;4965492;28;21363;-78
2022/03/27 09:23:51;;;;;;;17.10;15.57;;;14.20;1.00;;;;;;4963473;28;20444;-76
2022/03/27 09:26:18;;;;;;;15.00;13.60;;;15.30;1.00;;;;;;4961787;28;20676;-78
2022/03/27 09:28:49;;;;;;;14.03;12.60;;;16.80;1.00;;;;;;4967109;28;20437;-80
2022/03/27 09:31:28;;;;;;;13.43;12.30;;;18.40;1.00;;;;;;4963069;28;20472;-79
2022/03/27 09:33:56;;;;;;;13.17;11.87;;;19.70;1.00;;;;;;4964623;28;20515;-81
2022/03/27 09:36:28;;;;;;;14.00;12.70;;;20.70;1.00;;;;;;4969446;28;21886;-81
2022/03/27 09:39:11;;;;;;;13.27;12.13;;;21.80;1.00;;;;;;4967192;28;20515;-79
2022/03/27 09:41:47;;;;;;;11.30;10.30;;;22.40;1.00;;;;;;4963599;28;20469;-81
2022/03/27 09:44:17;;;;;;;9.57;8.77;;;22.90;1.00;;;;;;4969051;28;20453;-81
2022/03/27 09:46:49;;;;;;;9.73;8.90;;;22.60;1.00;;;;;;4955577;28;20461;-78
2022/03/27 09:49:16;;;;;;;11.23;10.20;;;22.70;1.00;;;;;;4960911;28;20474;-81
2022/03/27 09:51:54;;;;;;;11.00;9.53;;;23.30;1.00;;;;;;4969353;28;20455;-80
2022/03/27 09:54:50;;;;;;;11.93;10.40;;;24.20;1.00;;;;;;4950213;28;20425;-79
2022/03/27 09:57:18;;;;;;;10.90;9.90;;;25.10;1.00;;;;;;4954011;28;20452;-81
2022/03/27 09:59:47;;;;;;;10.63;9.67;;;25.90;1.00;;;;;;4965853;28;20453;-80
2022/03/27 10:02:28;;;;;;;10.10;9.20;;;26.10;1.00;;;;;;4957353;28;20461;-81
2022/03/27 10:05:05;;;;;;;9.80;9.00;;;26.50;1.00;;;;;;4959089;28;20447;-80
2022/03/27 10:07:50;;;;;;;10.83;9.77;;;26.90;1.00;;;;;;4962791;28;20524;-80
2022/03/27 10:10:18;;;;;;;14.10;12.83;;;27.70;1.00;;;;;;4965385;28;20437;-83
2022/03/27 10:12:47;;;;;;;10.40;9.60;;;27.90;1.00;;;;;;4970991;28;20456;-79
2022/03/27 10:15:16;;;;;;;10.77;9.87;;;27.90;1.00;;;;;;4978156;28;20445;-77
2022/03/27 10:17:55;;;;;;;10.83;9.83;;;28.10;1.00;;;;;;4969500;28;20426;-77
2022/03/27 10:20:31;;;;;;;11.07;10.07;;;28.30;1.00;;;;;;4974463;28;20558;-78
2022/03/27 10:23:07;;;;;;;10.10;9.20;;;28.60;1.00;;;;;;4971087;28;20456;-78
2022/03/27 10:25:37;;;;;;;18.60;16.90;;;28.60;1.00;;;;;;4971214;28;20464;-81
2022/03/27 10:28:09;;;;;;;10.10;9.20;;;27.80;1.00;;;;;;4952153;28;20891;-79
2022/03/27 10:30:49;;;;;;;10.03;8.87;;;27.30;1.00;;;;;;4962329;28;20570;-83
2022/03/27 10:33:18;;;;;;;11.73;10.70;;;27.50;1.00;;;;;;4966332;28;20456;-82
2022/03/27 10:35:56;;;;;;;9.27;8.40;;;27.70;1.00;;;;;;4962538;28;20436;-81
2022/03/27 10:38:46;;;;;;;10.03;8.80;;;27.30;1.00;;;;;;4963910;28;20487;-80
2022/03/27 10:41:19;;;;;;;9.20;8.40;;;27.40;1.00;;;;;;4963964;28;21698;-79
2022/03/27 10:43:52;;;;;;;10.43;9.47;;;27.50;1.00;;;;;;4955012;28;20944;-80
2022/03/27 10:46:26;;;;;;;7.77;7.03;;;28.20;1.00;;;;;;4963522;28;20468;-80
2022/03/27 10:49:09;;;;;;;8.90;8.10;;;28.60;1.00;;;;;;4966097;28;20500;-79
2022/03/27 10:51:38;;;;;;;9.83;8.83;;;29.10;1.00;;;;;;4961284;28;20555;-77
2022/03/27 10:54:10;;;;;;;9.33;8.43;;;29.20;1.00;;;;;;4964427;28;20448;-79
2022/03/27 10:56:45;;;;;;;6.53;6.03;;;29.30;1.00;;;;;;4977619;28;20452;-79
2022/03/27 10:59:14;;;;;;;9.77;8.87;;;29.50;1.00;;;;;;4973803;28;20535;-81
2022/03/27 11:01:49;;;;;;;9.90;9.10;;;29.70;1.00;;;;;;4974495;28;20432;-78
2022/03/27 11:04:17;;;;;;;11.00;10.00;;;29.70;1.00;;;;;;4966170;28;21257;-79
2022/03/27 11:06:47;;;;;;;10.97;9.97;;;30.10;1.00;;;;;;4980414;28;20447;-80
2022/03/27 11:09:32;;;;;;;9.43;8.63;;;30.70;1.00;;;;;;4972957;28;20480;-79
2022/03/27 11:12:07;;;;;;;9.23;8.47;;;31.00;1.00;;;;;;4973362;28;20460;-79
2022/03/27 11:14:55;;;;;;;11.40;10.27;;;30.80;1.00;;;;;;4978057;28;20460;-78
2022/03/27 11:17:55;;;;;;;9.80;8.90;;;30.20;1.00;;;;;;4975452;28;20455;-80
2022/03/27 11:20:47;;;;;;;9.63;8.73;;;30.20;1.00;;;;;;4974524;28;20455;-80
2022/03/27 11:23:33;;;;;;;9.53;8.63;;;29.60;1.00;;;;;;4964563;28;20480;-80
2022/03/27 11:26:02;;;;;;;8.50;7.80;;;30.20;1.00;;;;;;4976386;28;20523;-79
2022/03/27 11:28:45;;;;;;;6.93;6.27;;;30.70;1.00;;;;;;4969078;28;20449;-80
2022/03/27 11:31:26;;;;;;;6.67;6.17;;;30.90;1.00;;;;;;4966178;28;20473;-79
2022/03/27 11:34:17;;;;;;;7.30;6.70;;;30.50;1.00;;;;;;4973894;28;20472;-77
2022/03/27 11:36:50;;;;;;;6.50;6.00;;;30.60;1.00;;;;;;4972379;28;20424;-78
2022/03/27 11:39:34;;;;;;;7.33;6.73;;;30.90;1.00;;;;;;4980786;28;20435;-78
2022/03/27 11:42:28;;;;;;;8.67;7.87;;;31.10;1.00;;;;;;4975272;28;20440;-79
2022/03/27 11:45:26;;;;;;;9.17;8.43;;;30.50;1.00;;;;;;4979142;28;20488;-79
2022/03/27 11:47:55;;;;;;;8.80;8.17;;;30.10;1.00;;;;;;4984997;28;20472;-78
2022/03/27 11:50:31;;;;;;;7.40;6.70;;;30.00;1.00;;;;;;4985346;28;20424;-79
2022/03/27 11:52:59;;;;;;;7.30;6.70;;;30.30;1.00;;;;;;4974235;28;20446;-79
2022/03/27 11:55:29;;;;;;;6.77;6.23;;;31.00;1.00;;;;;;4970145;28;20514;-80
2022/03/27 11:57:57;;;;;;;7.20;6.60;;;31.40;1.00;;;;;;4972787;28;20472;-81
2022/03/27 12:00:34;;;;;;;6.80;6.30;;;32.10;1.00;;;;;;4971841;28;20438;-78
2022/03/27 12:03:04;;;;;;;7.87;7.17;;;32.20;1.00;;;;;;4967181;28;20551;-78
2022/03/27 12:05:39;;;;;;;5.20;4.80;;;31.90;1.00;;;;;;4972741;28;20487;-78
2022/03/27 12:08:11;;;;;;;6.90;6.30;;;31.90;1.00;;;;;;4973566;28;20652;-79
2022/03/27 12:10:56;;;;;;;7.10;6.50;;;32.60;1.00;;;;;;4973390;28;20589;-78
2022/03/27 12:13:29;;;;;;;6.67;6.07;;;33.20;1.00;;;;;;4974950;28;20710;-79
2022/03/27 12:15:58;;;;;;;6.77;6.27;;;33.60;1.00;;;;;;4978919;28;20432;-78
2022/03/27 12:18:34;;;;;;;6.33;5.83;;;33.40;1.00;;;;;;4971699;28;20488;-79
2022/03/27 12:21:09;;;;;;;7.50;6.80;;;33.00;1.00;;;;;;4973316;28;20417;-79
2022/03/27 12:23:37;;;;;;;8.17;7.50;;;33.20;1.00;;;;;;4970455;28;20451;-80
2022/03/27 12:32:07;;;;;;;7.37;6.37;;;33.00;1.00;;;;;;4974069;28;20464;-79
2022/03/27 12:34:36;;;;;;;7.40;6.27;;;30.70;1.00;;;;;;4975700;28;20483;-76
2022/03/27 12:37:14;;;;;;;5.53;5.03;;;30.90;1.00;;;;;;4969944;28;20428;-79
2022/03/27 12:40:05;;;;;;;6.20;5.60;;;32.10;1.00;;;;;;4972548;28;20467;-78
2022/03/27 12:42:48;;;;;;;4.80;4.40;;;33.00;1.00;;;;;;4977174;28;20424;-79
2022/03/27 12:45:17;;;;;;;5.57;5.07;;;33.20;1.00;;;;;;4987404;28;20488;-79
2022/03/27 12:47:46;;;;;;;6.23;5.23;;;33.30;1.00;;;;;;4978728;28;20454;-77
2022/03/27 12:50:15;;;;;;;5.83;5.23;;;33.60;1.00;;;;;;4975187;28;20467;-77
2022/03/27 12:52:56;;;;;;;5.60;5.10;;;33.90;1.00;;;;;;4978896;28;20401;-78
2022/03/27 12:55:43;;;;;;;6.57;5.50;;;34.20;1.00;;;;;;4972965;28;20433;-80
2022/03/27 12:58:12;;;;;;;6.00;5.40;;;34.40;1.00;;;;;;4979359;28;20436;-77
2022/03/27 13:00:45;;;;;;;5.30;4.80;;;34.60;1.00;;;;;;4983973;28;20522;-79
2022/03/27 13:03:16;;;;;;;5.37;4.87;;;35.10;1.00;;;;;;4977247;28;20453;-79
2022/03/27 13:06:01;;;;;;;7.63;4.63;;;34.40;1.00;;;;;;4979706;28;21109;-80
2022/03/27 13:08:32;;;;;;;5.47;4.70;;;34.10;1.00;;;;;;4973445;28;21721;-76
2022/03/27 13:11:01;;;;;;;5.27;4.77;;;33.90;1.00;;;;;;4978849;28;20424;-77
2022/03/27 13:13:36;;;;;;;4.60;4.20;;;33.40;1.00;;;;;;4974390;28;20440;-80
2022/03/27 13:16:30;;;;;;;;;;;;;;;;;;;;;
2022/03/27 13:19:04;;;;;;;5.63;5.13;;;33.70;1.00;;;;;;4965227;28;49271;-78
2022/03/27 13:21:32;;;;;;;4.87;4.47;;;34.10;1.00;;;;;;4975164;28;20465;-78
2022/03/27 13:24:07;;;;;;;4.90;4.50;;;35.20;1.00;;;;;;4979698;28;20478;-78
2022/03/27 13:26:34;;;;;;;4.90;3.80;;;35.40;1.00;;;;;;4977737;28;20448;-79
2022/03/27 13:29:09;;;;;;;5.63;5.00;;;35.40;1.00;;;;;;4976802;28;20481;-80
2022/03/27 13:31:36;;;;;;;5.07;4.10;;;35.30;1.00;;;;;;4982441;28;20503;-79
2022/03/27 13:34:09;;;;;;;6.90;4.17;;;34.70;1.00;;;;;;4978778;28;20475;-78
2022/03/27 13:36:38;;;;;;;5.83;5.23;;;33.60;1.00;;;;;;4986752;28;20440;-77
2022/03/27 13:39:09;;;;;;;6.87;5.10;;;31.60;1.00;;;;;;4983974;28;20450;-78
2022/03/27 13:44:25;;;;;;;5.17;4.20;;;26.60;1.00;;;;;;4988577;28;20468;-78
2022/03/27 13:46:52;;;;;;;5.40;4.80;;;24.70;1.00;;;;;;4991316;28;20527;-78
2022/03/27 13:49:25;;;;;;;7.70;5.13;;;23.30;1.00;;;;;;4985307;28;20429;-79
2022/03/27 13:51:52;;;;;;;5.43;4.73;;;22.40;1.00;;;;;;4988290;28;20445;-78